createdAt,value
2022-11-28T00:00:09.263Z,61.43
2022-11-28T00:00:44.218Z,60.76
2022-11-28T00:01:49.591Z,60.69
2022-11-28T00:02:21.577Z,59.66
2022-11-28T00:02:53.665Z,57.98
2022-11-28T00:03:25.684Z,57.47
2022-11-28T00:03:57.958Z,57.50
2022-11-28T00:04:30.056Z,57.83
2022-11-28T00:05:02.221Z,58.37
2022-11-28T00:05:36.795Z,58.92
2022-11-28T00:06:08.841Z,59.50
2022-11-28T00:06:45.444Z,60.11
2022-11-28T00:07:17.611Z,60.57
2022-11-28T00:07:49.740Z,61.39
2022-11-28T00:08:21.513Z,62.07
2022-11-28T00:08:53.664Z,62.73
2022-11-28T00:09:25.301Z,63.41
2022-11-28T00:09:57.086Z,63.73
2022-11-28T00:10:28.784Z,63.43
2022-11-28T00:11:04.298Z,62.89
2022-11-28T00:11:36.094Z,62.33
2022-11-28T00:12:07.979Z,61.41
2022-11-28T00:12:39.708Z,60.57
2022-11-28T00:13:11.501Z,59.80
2022-11-28T00:13:43.586Z,59.01
2022-11-28T00:14:16.346Z,58.03
2022-11-28T00:14:48.197Z,57.48
2022-11-28T00:15:20.149Z,57.43
2022-11-28T00:16:12.690Z,57.77
2022-11-28T00:16:44.787Z,57.97
2022-11-28T00:17:16.486Z,59.01
2022-11-28T00:17:48.181Z,59.98
2022-11-28T00:18:19.870Z,60.55
2022-11-28T00:18:52.450Z,61.16
2022-11-28T00:19:24.239Z,61.96
2022-11-28T00:19:56.004Z,62.59
2022-11-28T00:20:27.977Z,63.27
2022-11-28T00:21:00.677Z,63.94
2022-11-28T00:21:32.679Z,64.13
2022-11-28T00:22:04.579Z,64.14
2022-11-28T00:22:36.308Z,63.67
2022-11-28T00:23:08.138Z,62.98
2022-11-28T00:23:40.753Z,62.31
2022-11-28T00:24:12.493Z,61.49
2022-11-28T00:24:44.649Z,60.66
2022-11-28T00:25:16.527Z,59.94
2022-11-28T00:25:55.903Z,59.25
2022-11-28T00:26:35.341Z,58.55
2022-11-28T00:27:07.229Z,57.89
2022-11-28T00:27:38.961Z,58.04
2022-11-28T00:28:10.653Z,58.45
2022-11-28T00:28:42.390Z,59.00
2022-11-28T00:29:14.223Z,59.68
2022-11-28T00:29:46.070Z,60.34
2022-11-28T00:30:17.839Z,61.04
2022-11-28T00:30:49.489Z,61.68
2022-11-28T00:31:23.328Z,62.24
2022-11-28T00:31:55.314Z,62.84
2022-11-28T00:32:27.389Z,63.62
2022-11-28T00:32:59.260Z,63.96
2022-11-28T00:33:31.917Z,63.87
2022-11-28T00:34:03.791Z,63.26
2022-11-28T00:34:35.794Z,62.66
2022-11-28T00:35:07.660Z,61.93
2022-11-28T00:35:39.442Z,61.14
2022-11-28T00:36:11.566Z,60.33
2022-11-28T00:36:44.344Z,59.75
2022-11-28T00:37:15.897Z,59.33
2022-11-28T00:37:47.467Z,58.58
2022-11-28T00:38:19.275Z,58.20
2022-11-28T00:38:51.380Z,58.20
2022-11-28T00:39:23.228Z,58.44
2022-11-28T00:39:55.150Z,58.99
2022-11-28T00:40:27.109Z,59.55
2022-11-28T00:41:00.331Z,60.27
2022-11-28T00:41:35.468Z,60.95
2022-11-28T00:42:07.137Z,61.69
2022-11-28T00:42:38.929Z,62.52
2022-11-28T00:43:12.500Z,63.27
2022-11-28T00:43:44.957Z,64.07
2022-11-28T00:44:16.683Z,64.48
2022-11-28T00:44:49.250Z,64.11
2022-11-28T00:45:21.829Z,63.59
2022-11-28T00:45:53.634Z,63.03
2022-11-28T00:46:25.991Z,62.28
2022-11-28T00:46:57.698Z,61.61
2022-11-28T00:47:29.347Z,60.74
2022-11-28T00:48:01.093Z,60.02
2022-11-28T00:48:33.598Z,59.35
2022-11-28T00:49:05.671Z,58.54
2022-11-28T00:49:37.513Z,57.76
2022-11-28T00:50:09.481Z,57.43
2022-11-28T00:50:41.223Z,57.48
2022-11-28T00:51:14.133Z,57.88
2022-11-28T00:51:46.224Z,58.42
2022-11-28T00:52:17.972Z,59.09
2022-11-28T00:52:50.083Z,59.88
2022-11-28T00:53:21.841Z,60.60
2022-11-28T00:53:54.593Z,61.21
2022-11-28T00:54:26.303Z,61.70
2022-11-28T00:54:58.133Z,62.27
2022-11-28T00:55:29.886Z,62.95
2022-11-28T00:56:04.194Z,63.57
2022-11-28T00:56:37.501Z,64.00
2022-11-28T00:57:09.190Z,64.01
2022-11-28T00:57:40.923Z,63.51
2022-11-28T00:58:12.736Z,62.72
2022-11-28T00:58:44.653Z,62.09
2022-11-28T00:59:16.472Z,61.35
2022-11-28T00:59:48.246Z,60.47
2022-11-28T01:00:20.351Z,59.86
2022-11-28T01:00:52.086Z,59.29
2022-11-28T01:01:28.625Z,58.50
2022-11-28T01:02:00.440Z,57.91
2022-11-28T01:02:32.404Z,57.80
2022-11-28T01:03:04.668Z,58.08
2022-11-28T01:03:36.559Z,58.57
2022-11-28T01:04:09.376Z,59.13
2022-11-28T01:04:41.420Z,59.67
2022-11-28T01:05:13.295Z,60.39
2022-11-28T01:05:45.087Z,61.08
2022-11-28T01:06:21.433Z,61.71
2022-11-28T01:06:55.467Z,62.14
2022-11-28T01:07:30.292Z,62.71
2022-11-28T01:08:02.085Z,63.41
2022-11-28T01:08:33.927Z,63.66
2022-11-28T01:09:16.481Z,63.49
2022-11-28T01:09:48.184Z,63.08
2022-11-28T01:10:20.807Z,62.12
2022-11-28T01:10:52.495Z,61.46
2022-11-28T01:11:24.550Z,60.86
2022-11-28T01:11:56.279Z,60.26
2022-11-28T01:12:28.057Z,59.59
2022-11-28T01:12:59.705Z,58.72
2022-11-28T01:13:31.477Z,57.91
2022-11-28T01:14:03.378Z,57.49
2022-11-28T01:14:35.107Z,57.34
2022-11-28T01:15:08.747Z,57.63
2022-11-28T01:15:41.522Z,58.01
2022-11-28T01:16:13.311Z,58.59
2022-11-28T01:16:45.314Z,59.41
2022-11-28T01:17:17.040Z,60.03
2022-11-28T01:17:48.778Z,60.64
2022-11-28T01:18:20.590Z,61.28
2022-11-28T01:18:52.390Z,61.98
2022-11-28T01:19:24.454Z,62.76
2022-11-28T01:19:56.186Z,63.61
2022-11-28T01:20:28.215Z,64.18
2022-11-28T01:20:59.882Z,64.24
2022-11-28T01:21:31.826Z,63.77
2022-11-28T01:22:05.899Z,63.32
2022-11-28T01:22:37.811Z,62.81
2022-11-28T01:23:09.715Z,61.90
2022-11-28T01:23:41.484Z,61.26
2022-11-28T01:24:14.878Z,60.65
2022-11-28T01:24:46.661Z,60.19
2022-11-28T01:25:18.497Z,59.59
2022-11-28T01:25:50.144Z,59.01
2022-11-28T01:26:23.200Z,58.30
2022-11-28T01:26:54.877Z,57.85
2022-11-28T01:27:26.570Z,57.89
2022-11-28T01:27:58.331Z,58.18
2022-11-28T01:28:30.076Z,58.55
2022-11-28T01:29:01.855Z,58.98
2022-11-28T01:29:33.576Z,59.64
2022-11-28T01:30:05.648Z,60.39
2022-11-28T01:30:37.462Z,61.16
2022-11-28T01:31:09.858Z,61.87
2022-11-28T01:31:41.956Z,62.52
2022-11-28T01:32:13.689Z,63.15
2022-11-28T01:32:45.406Z,63.82
2022-11-28T01:33:17.341Z,64.16
2022-11-28T01:33:49.524Z,64.07
2022-11-28T01:34:21.248Z,63.59
2022-11-28T01:34:53.107Z,62.87
2022-11-28T01:35:24.858Z,61.98
2022-11-28T01:35:57.204Z,61.21
2022-11-28T01:36:28.967Z,60.27
2022-11-28T01:37:00.729Z,59.77
2022-11-28T01:37:32.409Z,59.14
2022-11-28T01:38:04.151Z,58.39
2022-11-28T01:38:35.929Z,57.97
2022-11-28T01:39:07.698Z,57.96
2022-11-28T01:39:39.779Z,58.22
2022-11-28T01:40:12.409Z,58.74
2022-11-28T01:40:45.272Z,59.29
2022-11-28T01:41:18.486Z,59.94
2022-11-28T01:41:50.146Z,60.55
2022-11-28T01:42:21.927Z,61.36
2022-11-28T01:42:53.854Z,61.98
2022-11-28T01:43:25.663Z,62.64
2022-11-28T01:44:05.571Z,63.36
2022-11-28T01:44:40.612Z,64.05
2022-11-28T01:45:21.193Z,64.31
2022-11-28T01:45:53.741Z,64.07
2022-11-28T01:46:25.856Z,62.86
2022-11-28T01:46:57.912Z,61.99
2022-11-28T01:47:30.187Z,61.11
2022-11-28T01:48:03.103Z,60.44
2022-11-28T01:48:39.467Z,59.76
2022-11-28T01:49:20.762Z,59.21
2022-11-28T01:49:54.043Z,58.33
2022-11-28T01:50:26.775Z,57.95
2022-11-28T01:51:00.654Z,58.07
2022-11-28T01:51:32.868Z,58.39
2022-11-28T01:52:06.450Z,58.90
2022-11-28T01:52:39.824Z,59.44
2022-11-28T01:53:12.230Z,60.07
2022-11-28T01:53:45.205Z,60.68
2022-11-28T01:54:18.406Z,61.35
2022-11-28T01:54:52.956Z,61.98
2022-11-28T01:55:26.148Z,62.48
2022-11-28T01:56:00.544Z,63.15
2022-11-28T01:56:37.965Z,63.93
2022-11-28T01:57:13.338Z,64.33
2022-11-28T01:57:45.164Z,63.99
2022-11-28T01:58:16.956Z,63.38
2022-11-28T01:58:51.660Z,62.61
2022-11-28T01:59:26.291Z,62.00
2022-11-28T02:00:00.821Z,61.09
2022-11-28T02:00:34.200Z,60.21
2022-11-28T02:01:06.350Z,59.41
2022-11-28T02:01:38.791Z,58.66
2022-11-28T02:02:14.750Z,57.95
2022-11-28T02:02:51.807Z,57.50
2022-11-28T02:03:33.195Z,57.59
2022-11-28T02:04:05.123Z,57.96
2022-11-28T02:04:37.135Z,58.79
2022-11-28T02:05:09.534Z,59.40
2022-11-28T02:05:41.406Z,60.00
2022-11-28T02:06:14.847Z,60.72
2022-11-28T02:06:46.710Z,61.43
2022-11-28T02:07:19.198Z,62.07
2022-11-28T02:07:51.267Z,62.64
2022-11-28T02:08:25.025Z,63.37
2022-11-28T02:08:56.847Z,63.90
2022-11-28T02:09:28.552Z,63.86
2022-11-28T02:10:01.352Z,63.41
2022-11-28T02:10:52.157Z,62.64
2022-11-28T02:11:26.857Z,62.65
2022-11-28T02:12:01.305Z,61.05
2022-11-28T02:12:38.699Z,60.25
2022-11-28T02:13:21.176Z,59.57
2022-11-28T02:14:02.095Z,58.77
2022-11-28T02:14:42.990Z,57.56
2022-11-28T02:15:23.256Z,57.32
2022-11-28T02:16:00.894Z,57.35
2022-11-28T02:16:39.310Z,58.04
2022-11-28T02:17:10.994Z,58.74
2022-11-28T02:17:51.551Z,59.58
2022-11-28T02:18:30.861Z,59.91
2022-11-28T02:19:02.685Z,60.72
2022-11-28T02:19:52.659Z,61.61
2022-11-28T02:20:24.284Z,61.74
2022-11-28T02:20:56.069Z,62.91
2022-11-28T02:21:35.574Z,63.61
2022-11-28T02:22:22.354Z,64.15
2022-11-28T02:23:09.597Z,64.40
2022-11-28T02:23:59.778Z,63.64
2022-11-28T02:24:31.355Z,62.97
2022-11-28T02:25:12.239Z,60.83
2022-11-28T02:25:43.997Z,60.30
2022-11-28T02:26:18.602Z,58.87
2022-11-28T02:26:53.131Z,57.83
2022-11-28T02:27:43.559Z,57.11
2022-11-28T02:28:29.355Z,56.68
2022-11-28T02:29:15.870Z,57.23
2022-11-28T02:30:06.349Z,57.87
2022-11-28T02:30:49.988Z,58.57
2022-11-28T02:31:45.033Z,59.84
2022-11-28T02:32:16.696Z,60.42
2022-11-28T02:32:48.406Z,62.07
2022-11-28T02:33:58.887Z,62.90
2022-11-28T02:34:37.784Z,64.57
2022-11-28T02:35:09.571Z,64.47
2022-11-28T02:35:46.939Z,63.67
2022-11-28T02:36:30.774Z,63.36
2022-11-28T02:37:12.798Z,62.90
2022-11-28T02:37:49.447Z,61.81
2022-11-28T02:38:36.133Z,60.34
2022-11-28T02:39:08.028Z,59.84
2022-11-28T02:39:54.962Z,58.13
2022-11-28T02:40:45.478Z,57.42
2022-11-28T02:41:17.338Z,57.19
2022-11-28T02:41:52.157Z,58.00
2022-11-28T02:42:30.714Z,58.55
2022-11-28T02:43:13.777Z,59.10
2022-11-28T02:43:48.491Z,59.78
2022-11-28T02:44:25.343Z,60.81
2022-11-28T02:44:57.074Z,61.51
2022-11-28T02:45:33.553Z,62.32
2022-11-28T02:46:25.240Z,62.84
2022-11-28T02:47:06.224Z,64.17
2022-11-28T02:47:43.796Z,64.39
2022-11-28T02:48:21.688Z,63.79
2022-11-28T02:48:56.056Z,62.96
2022-11-28T02:49:46.326Z,61.89
2022-11-28T02:50:24.322Z,61.82
2022-11-28T02:51:07.046Z,60.30
2022-11-28T02:51:47.814Z,59.52
2022-11-28T02:52:19.352Z,58.32
2022-11-28T02:52:58.526Z,58.03
2022-11-28T02:53:31.485Z,57.87
2022-11-28T02:54:05.115Z,58.34
2022-11-28T02:54:37.939Z,58.79
2022-11-28T02:55:10.994Z,59.37
2022-11-28T02:55:43.151Z,60.08
2022-11-28T02:56:14.891Z,60.82
2022-11-28T02:56:48.096Z,61.55
2022-11-28T02:57:19.961Z,62.21
2022-11-28T02:57:52.984Z,62.93
2022-11-28T02:58:24.829Z,63.81
2022-11-28T02:58:56.513Z,64.13
2022-11-28T02:59:30.976Z,64.14
2022-11-28T03:00:02.938Z,63.81
2022-11-28T03:00:36.324Z,63.09
2022-11-28T03:01:15.090Z,62.36
2022-11-28T03:01:46.918Z,61.70
2022-11-28T03:02:22.403Z,60.72
2022-11-28T03:02:57.285Z,60.20
2022-11-28T03:03:28.966Z,59.47
2022-11-28T03:04:09.004Z,58.73
2022-11-28T03:05:04.153Z,58.12
2022-11-28T03:05:46.103Z,57.40
2022-11-28T03:06:17.964Z,57.85
2022-11-28T03:07:04.230Z,58.68
2022-11-28T03:07:46.177Z,58.87
2022-11-28T03:08:17.937Z,59.99
2022-11-28T03:08:52.347Z,60.90
2022-11-28T03:09:44.171Z,61.59
2022-11-28T03:10:27.794Z,62.24
2022-11-28T03:11:06.097Z,62.84
2022-11-28T03:11:37.851Z,63.97
2022-11-28T03:12:28.123Z,64.03
2022-11-28T03:13:10.229Z,64.08
2022-11-28T03:13:44.701Z,63.38
2022-11-28T03:14:29.249Z,62.41
2022-11-28T03:15:02.363Z,62.19
2022-11-28T03:15:47.373Z,61.08
2022-11-28T03:16:42.296Z,60.89
2022-11-28T03:17:26.157Z,60.62
2022-11-28T03:18:10.294Z,59.78
2022-11-28T03:18:50.489Z,58.73
2022-11-28T03:19:34.112Z,57.68
2022-11-28T03:20:24.778Z,57.55
2022-11-28T03:20:59.715Z,57.69
2022-11-28T03:21:44.474Z,58.63
2022-11-28T03:22:26.422Z,59.06
2022-11-28T03:22:58.403Z,59.97
2022-11-28T03:23:34.811Z,61.00
2022-11-28T03:24:12.191Z,61.72
2022-11-28T03:24:50.270Z,62.35
2022-11-28T03:25:25.206Z,63.13
2022-11-28T03:25:58.627Z,63.96
2022-11-28T03:26:36.664Z,64.20
2022-11-28T03:27:14.388Z,63.98
2022-11-28T03:27:48.821Z,63.44
2022-11-28T03:28:29.878Z,62.52
2022-11-28T03:29:06.877Z,61.97
2022-11-28T03:29:44.150Z,61.05
2022-11-28T03:30:25.143Z,60.12
2022-11-28T03:31:00.147Z,59.66
2022-11-28T03:31:44.842Z,58.68
2022-11-28T03:32:19.546Z,57.91
2022-11-28T03:32:52.910Z,57.71
2022-11-28T03:33:27.565Z,57.95
2022-11-28T03:34:00.072Z,58.37
2022-11-28T03:34:34.506Z,58.88
2022-11-28T03:35:09.525Z,59.48
2022-11-28T03:35:45.143Z,60.21
2022-11-28T03:36:19.339Z,60.73
2022-11-28T03:36:57.888Z,61.35
2022-11-28T03:37:32.292Z,61.87
2022-11-28T03:38:06.640Z,62.70
2022-11-28T03:38:40.168Z,63.48
2022-11-28T03:39:13.578Z,63.75
2022-11-28T03:39:49.255Z,63.73
2022-11-28T03:40:26.652Z,63.27
2022-11-28T03:40:59.589Z,62.98
2022-11-28T03:41:36.325Z,62.05
2022-11-28T03:42:14.114Z,61.46
2022-11-28T03:42:50.941Z,61.05
2022-11-28T03:43:26.519Z,60.33
2022-11-28T03:43:59.636Z,59.76
2022-11-28T03:44:33.017Z,58.86
2022-11-28T03:45:07.661Z,58.10
2022-11-28T03:45:41.184Z,57.62
2022-11-28T03:46:15.118Z,57.65
2022-11-28T03:46:48.240Z,57.98
2022-11-28T03:47:21.668Z,58.48
2022-11-28T03:48:06.207Z,59.11
2022-11-28T03:48:42.726Z,59.51
2022-11-28T03:49:18.331Z,60.54
2022-11-28T03:49:51.181Z,61.24
2022-11-28T03:50:34.802Z,62.07
2022-11-28T03:51:13.464Z,62.40
2022-11-28T03:52:01.332Z,63.52
2022-11-28T03:52:35.542Z,64.17
2022-11-28T03:53:09.685Z,63.43
2022-11-28T03:53:47.450Z,62.73
2022-11-28T03:54:32.254Z,61.64
2022-11-28T03:55:10.682Z,61.14
2022-11-28T03:55:49.296Z,60.10
2022-11-28T03:56:43.270Z,59.35
2022-11-28T03:57:19.374Z,58.30
2022-11-28T03:57:55.879Z,57.91
2022-11-28T03:58:33.551Z,58.07
2022-11-28T03:59:10.698Z,58.44
2022-11-28T03:59:52.413Z,59.13
2022-11-28T04:00:24.749Z,59.73
2022-11-28T04:00:56.437Z,60.72
2022-11-28T04:01:31.666Z,61.40
2022-11-28T04:02:06.385Z,61.89
2022-11-28T04:03:02.437Z,62.58
2022-11-28T04:03:52.681Z,63.47
2022-11-28T04:04:33.528Z,63.88
2022-11-28T04:05:23.291Z,63.63
2022-11-28T04:06:07.064Z,63.53
2022-11-28T04:06:59.002Z,62.39
2022-11-28T04:07:39.559Z,61.90
2022-11-28T04:08:13.905Z,60.55
2022-11-28T04:08:52.045Z,59.49
2022-11-28T04:09:36.271Z,58.80
2022-11-28T04:10:31.354Z,57.84
2022-11-28T04:11:29.503Z,57.42
2022-11-28T04:12:07.133Z,57.83
2022-11-28T04:12:56.825Z,59.06
2022-11-28T04:13:33.677Z,59.56
2022-11-28T04:14:31.763Z,60.52
2022-11-28T04:15:07.008Z,60.79
2022-11-28T04:15:38.693Z,62.25
2022-11-28T04:16:33.462Z,62.98
2022-11-28T04:17:05.007Z,63.82
2022-11-28T04:17:39.267Z,63.98
2022-11-28T04:18:13.989Z,63.76
2022-11-28T04:19:00.704Z,63.74
2022-11-28T04:19:37.525Z,63.81
2022-11-28T04:20:14.466Z,62.22
2022-11-28T04:21:06.409Z,60.82
2022-11-28T04:21:40.808Z,60.72
2022-11-28T04:22:12.613Z,58.64
2022-11-28T04:22:47.064Z,57.36
2022-11-28T04:23:19.826Z,56.55
2022-11-28T04:23:54.666Z,56.42
2022-11-28T04:24:37.002Z,56.48
2022-11-28T04:25:11.326Z,56.41
2022-11-28T04:25:46.090Z,57.48
2022-11-28T04:26:26.581Z,58.28
2022-11-28T04:27:00.399Z,58.81
2022-11-28T04:27:37.380Z,59.86
2022-11-28T04:28:12.712Z,60.54
2022-11-28T04:28:45.778Z,61.29
2022-11-28T04:29:20.279Z,61.95
2022-11-28T04:29:57.482Z,62.50
2022-11-28T04:30:29.304Z,63.19
2022-11-28T04:31:02.336Z,63.94
2022-11-28T04:31:35.239Z,63.87
2022-11-28T04:32:08.033Z,63.28
2022-11-28T04:32:44.028Z,62.35
2022-11-28T04:33:17.063Z,61.45
2022-11-28T04:33:51.033Z,60.37
2022-11-28T04:34:24.415Z,59.41
2022-11-28T04:35:02.406Z,58.50
2022-11-28T04:35:36.785Z,57.47
2022-11-28T04:36:09.635Z,56.84
2022-11-28T04:36:43.728Z,57.08
2022-11-28T04:37:16.258Z,57.44
2022-11-28T04:37:49.225Z,58.09
2022-11-28T04:38:23.473Z,58.39
2022-11-28T04:38:56.985Z,58.88
2022-11-28T04:39:30.469Z,59.46
2022-11-28T04:40:02.435Z,60.55
2022-11-28T04:40:37.279Z,60.95
2022-11-28T04:41:14.100Z,61.44
2022-11-28T04:41:57.278Z,62.10
2022-11-28T04:42:35.178Z,62.59
2022-11-28T04:43:13.366Z,63.74
2022-11-28T04:43:50.423Z,64.25
2022-11-28T04:44:36.238Z,64.01
2022-11-28T04:45:11.354Z,63.51
2022-11-28T04:45:44.940Z,62.16
2022-11-28T04:46:24.511Z,61.13
2022-11-28T04:46:57.120Z,60.66
2022-11-28T04:47:29.152Z,59.38
2022-11-28T04:48:01.427Z,58.38
2022-11-28T04:48:34.598Z,57.37
2022-11-28T04:49:06.590Z,56.86
2022-11-28T04:49:38.689Z,56.79
2022-11-28T04:50:10.468Z,56.86
2022-11-28T04:50:47.186Z,57.09
2022-11-28T04:51:21.580Z,57.69
2022-11-28T04:51:59.641Z,58.15
2022-11-28T04:52:51.810Z,58.76
2022-11-28T04:53:32.451Z,59.32
2022-11-28T04:54:14.465Z,60.05
2022-11-28T04:55:15.251Z,60.70
2022-11-28T04:55:56.292Z,61.20
2022-11-28T04:56:30.461Z,62.54
2022-11-28T04:57:07.241Z,63.33
2022-11-28T04:57:41.634Z,64.29
2022-11-28T04:58:21.821Z,64.00
2022-11-28T04:58:53.646Z,63.47
2022-11-28T04:59:27.045Z,62.73
2022-11-28T05:00:01.036Z,62.20
2022-11-28T05:00:34.033Z,61.11
2022-11-28T05:01:06.997Z,59.96
2022-11-28T05:01:41.022Z,59.18
2022-11-28T05:02:14.313Z,58.31
2022-11-28T05:02:47.447Z,57.71
2022-11-28T05:03:19.305Z,57.59
2022-11-28T05:03:51.537Z,57.60
2022-11-28T05:04:23.719Z,58.20
2022-11-28T05:04:55.389Z,58.49
2022-11-28T05:05:29.403Z,59.23
2022-11-28T05:06:01.653Z,59.72
2022-11-28T05:06:34.180Z,60.28
2022-11-28T05:07:07.113Z,60.93
2022-11-28T05:07:39.129Z,61.43
2022-11-28T05:08:11.050Z,62.14
2022-11-28T05:08:42.935Z,62.75
2022-11-28T05:09:14.652Z,63.56
2022-11-28T05:09:46.559Z,64.16
2022-11-28T05:10:18.815Z,64.08
2022-11-28T05:10:50.431Z,63.54
2022-11-28T05:11:22.361Z,62.93
2022-11-28T05:11:54.073Z,61.97
2022-11-28T05:12:25.966Z,61.05
2022-11-28T05:12:57.744Z,60.43
2022-11-28T05:13:29.407Z,59.66
2022-11-28T05:14:01.044Z,58.84
2022-11-28T05:14:32.877Z,58.06
2022-11-28T05:15:05.356Z,57.67
2022-11-28T05:15:37.242Z,57.66
2022-11-28T05:16:09.989Z,57.95
2022-11-28T05:16:41.865Z,58.10
2022-11-28T05:17:13.690Z,58.66
2022-11-28T05:17:46.363Z,59.34
2022-11-28T05:18:18.229Z,59.95
2022-11-28T05:18:50.258Z,60.60
2022-11-28T05:19:22.095Z,61.27
2022-11-28T05:19:53.875Z,61.88
2022-11-28T05:20:25.752Z,62.47
2022-11-28T05:21:01.219Z,63.03
2022-11-28T05:21:32.963Z,63.78
2022-11-28T05:22:04.674Z,63.86
2022-11-28T05:22:36.342Z,63.64
2022-11-28T05:23:08.223Z,63.18
2022-11-28T05:23:41.558Z,62.50
2022-11-28T05:24:13.419Z,61.81
2022-11-28T05:24:45.572Z,61.07
2022-11-28T05:25:17.515Z,60.43
2022-11-28T05:25:49.477Z,60.00
2022-11-28T05:26:21.496Z,59.55
2022-11-28T05:26:53.134Z,59.15
2022-11-28T05:27:24.738Z,58.56
2022-11-28T05:27:56.475Z,58.21
2022-11-28T05:28:28.138Z,58.23
2022-11-28T05:28:59.823Z,58.51
2022-11-28T05:29:31.602Z,58.96
2022-11-28T05:30:04.434Z,59.47
2022-11-28T05:30:36.108Z,60.09
2022-11-28T05:31:08.033Z,60.69
2022-11-28T05:31:40.008Z,61.22
2022-11-28T05:32:12.525Z,61.80
2022-11-28T05:32:44.391Z,62.33
2022-11-28T05:33:16.066Z,62.83
2022-11-28T05:33:47.789Z,63.38
2022-11-28T05:34:19.364Z,63.74
2022-11-28T05:34:51.232Z,63.56
2022-11-28T05:35:23.075Z,63.17
2022-11-28T05:35:55.279Z,62.42
2022-11-28T05:36:27.067Z,61.74
2022-11-28T05:36:59.009Z,61.06
2022-11-28T05:37:30.797Z,60.34
2022-11-28T05:38:02.470Z,59.64
2022-11-28T05:38:34.304Z,59.00
2022-11-28T05:39:05.955Z,58.16
2022-11-28T05:39:37.670Z,57.53
2022-11-28T05:40:09.376Z,57.48
2022-11-28T05:40:44.405Z,57.75
2022-11-28T05:41:34.348Z,58.07
2022-11-28T05:42:06.136Z,58.19
2022-11-28T05:42:37.787Z,59.35
2022-11-28T05:43:10.749Z,60.00
2022-11-28T05:43:42.850Z,60.53
2022-11-28T05:44:14.614Z,61.24
2022-11-28T05:44:47.444Z,61.79
2022-11-28T05:45:19.400Z,62.28
2022-11-28T05:45:51.575Z,62.91
2022-11-28T05:46:23.811Z,63.53
2022-11-28T05:46:55.550Z,63.91
2022-11-28T05:47:29.637Z,63.90
2022-11-28T05:48:01.275Z,63.43
2022-11-28T05:48:33.002Z,62.38
2022-11-28T05:49:04.793Z,61.08
2022-11-28T05:49:36.466Z,59.90
2022-11-28T05:50:08.303Z,58.72
2022-11-28T05:50:41.359Z,57.67
2022-11-28T05:51:13.122Z,56.82
2022-11-28T05:51:44.942Z,56.67
2022-11-28T05:52:16.680Z,56.89
2022-11-28T05:52:48.512Z,57.17
2022-11-28T05:53:20.265Z,57.56
2022-11-28T05:53:51.977Z,58.22
2022-11-28T05:54:23.824Z,58.50
2022-11-28T05:54:55.555Z,59.05
2022-11-28T05:55:27.308Z,59.75
2022-11-28T05:55:59.302Z,60.43
2022-11-28T05:56:31.185Z,60.98
2022-11-28T05:57:05.718Z,61.43
2022-11-28T05:57:37.403Z,61.94
2022-11-28T05:58:09.135Z,62.40
2022-11-28T05:58:41.252Z,62.89
2022-11-28T05:59:13.169Z,63.65
2022-11-28T05:59:45.208Z,64.02
2022-11-28T06:00:17.589Z,63.72
2022-11-28T06:00:49.370Z,62.95
2022-11-28T06:01:22.963Z,61.85
2022-11-28T06:01:54.764Z,60.85
2022-11-28T06:02:26.724Z,59.64
2022-11-28T06:03:01.552Z,58.48
2022-11-28T06:03:33.654Z,57.29
2022-11-28T06:04:05.702Z,56.79
2022-11-28T06:04:37.714Z,56.47
2022-11-28T06:05:34.636Z,56.66
2022-11-28T06:06:01.350Z,56.90
2022-11-28T06:06:33.828Z,57.96
2022-11-28T06:07:05.813Z,58.54
2022-11-28T06:07:37.819Z,59.18
2022-11-28T06:08:11.367Z,59.81
2022-11-28T06:08:43.324Z,60.49
2022-11-28T06:09:15.071Z,61.13
2022-11-28T06:09:46.900Z,61.73
2022-11-28T06:10:18.876Z,62.29
2022-11-28T06:10:57.788Z,62.86
2022-11-28T06:11:30.995Z,63.58
2022-11-28T06:12:02.957Z,63.57
2022-11-28T06:12:34.828Z,63.18
2022-11-28T06:13:06.453Z,62.30
2022-11-28T06:13:38.307Z,61.18
2022-11-28T06:14:10.559Z,59.99
2022-11-28T06:14:42.311Z,58.97
2022-11-28T06:15:14.128Z,57.48
2022-11-28T06:15:45.808Z,56.49
2022-11-28T06:16:19.076Z,56.22
2022-11-28T06:16:51.087Z,56.04
2022-11-28T06:17:23.025Z,56.39
2022-11-28T06:17:55.203Z,56.66
2022-11-28T06:18:26.864Z,57.27
2022-11-28T06:19:00.421Z,57.89
2022-11-28T06:19:32.478Z,58.57
2022-11-28T06:20:04.587Z,59.44
2022-11-28T06:20:36.393Z,60.07
2022-11-28T06:21:09.356Z,60.70
2022-11-28T06:21:41.202Z,61.13
2022-11-28T06:22:13.080Z,61.67
2022-11-28T06:22:45.894Z,61.93
2022-11-28T06:23:17.652Z,62.38
2022-11-28T06:23:49.411Z,62.93
2022-11-28T06:24:21.245Z,63.48
2022-11-28T06:24:53.338Z,63.77
2022-11-28T06:25:25.362Z,63.35
2022-11-28T06:25:57.600Z,62.63
2022-11-28T06:26:29.766Z,61.68
2022-11-28T06:27:01.768Z,60.58
2022-11-28T06:27:34.494Z,59.50
2022-11-28T06:28:06.158Z,58.33
2022-11-28T06:28:38.341Z,57.18
2022-11-28T06:29:10.110Z,56.62
2022-11-28T06:29:42.437Z,56.48
2022-11-28T06:30:14.425Z,56.72
2022-11-28T06:30:46.152Z,57.11
2022-11-28T06:31:19.497Z,57.52
2022-11-28T06:31:51.474Z,58.13
2022-11-28T06:32:23.200Z,58.49
2022-11-28T06:32:54.875Z,59.17
2022-11-28T06:33:26.680Z,59.77
2022-11-28T06:33:58.524Z,60.31
2022-11-28T06:34:31.441Z,61.14
2022-11-28T06:35:03.302Z,61.46
2022-11-28T06:35:34.888Z,61.92
2022-11-28T06:36:07.657Z,62.48
2022-11-28T06:36:39.342Z,63.00
2022-11-28T06:37:10.999Z,63.68
2022-11-28T06:37:42.861Z,63.96
2022-11-28T06:38:14.681Z,63.55
2022-11-28T06:38:46.782Z,62.77
2022-11-28T06:39:18.702Z,61.84
2022-11-28T06:39:50.868Z,61.04
2022-11-28T06:40:22.667Z,60.31
2022-11-28T06:40:58.348Z,59.43
2022-11-28T06:41:30.139Z,58.56
2022-11-28T06:42:02.050Z,57.43
2022-11-28T06:42:37.014Z,56.89
2022-11-28T06:43:08.772Z,56.95
2022-11-28T06:43:41.395Z,57.46
2022-11-28T06:44:14.212Z,58.02
2022-11-28T06:44:46.036Z,58.60
2022-11-28T06:45:17.832Z,59.24
2022-11-28T06:45:49.664Z,59.87
2022-11-28T06:46:21.699Z,60.52
2022-11-28T06:46:54.628Z,61.21
2022-11-28T06:47:26.303Z,61.84
2022-11-28T06:47:58.042Z,62.35
2022-11-28T06:48:29.816Z,62.85
2022-11-28T06:49:01.518Z,63.53
2022-11-28T06:49:33.280Z,63.88
2022-11-28T06:50:05.364Z,63.56
2022-11-28T06:50:37.045Z,62.84
2022-11-28T06:51:09.025Z,61.78
2022-11-28T06:51:41.423Z,60.26
2022-11-28T06:52:13.546Z,59.24
2022-11-28T06:52:45.753Z,58.11
2022-11-28T06:53:17.527Z,57.22
2022-11-28T06:53:49.370Z,56.75
2022-11-28T06:54:21.081Z,56.88
2022-11-28T06:54:52.857Z,57.25
2022-11-28T06:55:24.682Z,57.77
2022-11-28T06:55:56.629Z,58.37
2022-11-28T06:56:28.351Z,59.03
2022-11-28T06:57:00.093Z,59.69
2022-11-28T06:57:32.427Z,60.12
2022-11-28T06:58:04.241Z,60.54
2022-11-28T06:58:36.432Z,61.16
2022-11-28T06:59:10.762Z,61.44
2022-11-28T06:59:42.851Z,61.88
2022-11-28T07:00:15.327Z,62.32
2022-11-28T07:00:47.290Z,62.73
2022-11-28T07:01:20.608Z,63.29
2022-11-28T07:01:52.905Z,63.56
2022-11-28T07:02:24.942Z,63.03
2022-11-28T07:02:57.731Z,62.22
2022-11-28T07:03:29.628Z,61.19
2022-11-28T07:04:01.794Z,60.25
2022-11-28T07:04:33.693Z,59.13
2022-11-28T07:05:05.744Z,57.85
2022-11-28T07:05:37.709Z,56.84
2022-11-28T07:06:09.944Z,56.41
2022-11-28T07:06:43.309Z,56.39
2022-11-28T07:07:16.611Z,56.49
2022-11-28T07:07:54.298Z,57.03
2022-11-28T07:08:26.401Z,57.70
2022-11-28T07:08:58.762Z,58.50
2022-11-28T07:09:30.439Z,59.05
2022-11-28T07:10:02.941Z,59.75
2022-11-28T07:10:34.787Z,60.37
2022-11-28T07:11:11.734Z,61.04
2022-11-28T07:11:43.512Z,61.31
2022-11-28T07:12:15.321Z,62.04
2022-11-28T07:12:47.049Z,62.67
2022-11-28T07:13:18.974Z,63.30
2022-11-28T07:13:50.974Z,63.56
2022-11-28T07:14:22.666Z,63.25
2022-11-28T07:14:54.363Z,62.41
2022-11-28T07:15:26.355Z,61.33
2022-11-28T07:15:58.189Z,60.40
2022-11-28T07:16:31.014Z,59.47
2022-11-28T07:17:03.099Z,58.25
2022-11-28T07:17:35.518Z,56.94
2022-11-28T07:18:07.304Z,56.32
2022-11-28T07:18:39.187Z,56.05
2022-11-28T07:19:11.789Z,56.17
2022-11-28T07:19:43.778Z,56.67
2022-11-28T07:20:15.893Z,57.09
2022-11-28T07:20:47.779Z,57.74
2022-11-28T07:21:20.324Z,58.29
2022-11-28T07:21:52.038Z,58.94
2022-11-28T07:22:24.195Z,59.67
2022-11-28T07:22:56.043Z,60.32
2022-11-28T07:23:27.862Z,61.04
2022-11-28T07:23:59.878Z,61.74
2022-11-28T07:24:32.424Z,62.30
2022-11-28T07:25:04.453Z,62.78